createdAt,value
2024-04-18T00:03:30.009Z,6.88
2024-04-18T00:08:31.632Z,6.97
2024-04-18T00:13:53.228Z,6.92
2024-04-18T00:19:10.267Z,7.06
2024-04-18T00:24:11.948Z,6.88
2024-04-18T00:29:25.664Z,6.80
2024-04-18T00:34:43.356Z,6.66
2024-04-18T00:40:05.164Z,6.68
2024-04-18T00:45:13.035Z,6.69
2024-04-18T00:50:20.007Z,6.72
2024-04-18T00:55:21.934Z,6.75
2024-04-18T01:00:44.053Z,6.77
2024-04-18T01:06:04.304Z,6.79
2024-04-18T01:11:25.883Z,6.80
2024-04-18T01:16:27.512Z,6.90
2024-04-18T01:21:29.495Z,6.96
2024-04-18T01:26:31.121Z,6.98
2024-04-18T01:31:32.767Z,7.03
2024-04-18T01:36:34.415Z,7.22
2024-04-18T01:41:56.023Z,7.21
2024-04-18T01:47:16.479Z,7.24
2024-04-18T01:52:38.736Z,7.14
2024-04-18T01:57:41.025Z,7.18
2024-04-18T02:03:01.564Z,7.14
2024-04-18T02:08:15.847Z,6.97
2024-04-18T02:13:20.472Z,6.94
2024-04-18T02:18:22.166Z,6.81
2024-04-18T02:23:23.832Z,6.70
2024-04-18T02:28:25.420Z,6.50
2024-04-18T02:33:47.113Z,6.29
2024-04-18T02:38:51.300Z,6.12
2024-04-18T02:43:53.748Z,6.05
2024-04-18T02:48:55.523Z,6.09
2024-04-18T02:54:00.178Z,6.26
2024-04-18T02:59:01.816Z,6.43
2024-04-18T03:04:22.471Z,6.59
2024-04-18T03:09:24.160Z,6.71
2024-04-18T03:14:28.440Z,6.63
2024-04-18T03:19:40.464Z,6.38
2024-04-18T03:24:57.493Z,6.22
2024-04-18T03:30:02.213Z,6.27
2024-04-18T03:35:09.724Z,6.60
2024-04-18T03:40:14.289Z,6.79
2024-04-18T03:45:35.610Z,6.90
2024-04-18T03:50:55.962Z,6.95
2024-04-18T03:55:57.590Z,7.09
2024-04-18T04:00:59.346Z,7.15
2024-04-18T04:06:01.019Z,7.19
2024-04-18T04:11:02.704Z,7.21
2024-04-18T04:16:04.486Z,7.17
2024-04-18T04:21:12.676Z,7.19
2024-04-18T04:26:14.831Z,7.20
2024-04-18T04:31:16.462Z,7.17
2024-04-18T04:36:18.205Z,7.21
2024-04-18T04:41:19.854Z,7.23
2024-04-18T04:46:21.589Z,7.22
2024-04-18T04:51:23.227Z,7.31
2024-04-18T04:56:37.594Z,7.41
2024-04-18T05:01:54.203Z,7.26
2024-04-18T05:07:15.861Z,7.24
2024-04-18T05:12:17.558Z,7.24
2024-04-18T05:17:19.514Z,7.26
2024-04-18T05:22:41.136Z,7.35
2024-04-18T05:27:43.841Z,7.46
2024-04-18T05:33:05.528Z,7.50
2024-04-18T05:38:07.276Z,7.50
2024-04-18T05:43:08.884Z,7.53
2024-04-18T05:48:19.673Z,7.63
2024-04-18T05:53:21.375Z,7.70
2024-04-18T05:58:28.751Z,7.85
2024-04-18T06:03:30.453Z,7.89
2024-04-18T06:08:32.117Z,8.09
2024-04-18T06:13:33.801Z,7.94
2024-04-18T06:18:35.598Z,8.22
2024-04-18T06:23:37.232Z,8.15
2024-04-18T06:28:53.997Z,8.20
2024-04-18T06:34:13.351Z,8.21
2024-04-18T06:39:15.019Z,8.35
2024-04-18T06:44:16.683Z,9.20
2024-04-18T06:49:18.431Z,9.12
2024-04-18T06:54:20.118Z,9.06
2024-04-18T06:59:21.815Z,8.52
2024-04-18T07:04:23.633Z,8.95
2024-04-18T07:09:45.298Z,9.64
2024-04-18T07:14:54.624Z,9.35
2024-04-18T07:20:16.274Z,8.88
2024-04-18T07:25:37.886Z,9.07
2024-04-18T07:30:59.522Z,9.44
2024-04-18T07:36:01.283Z,9.62
2024-04-18T07:41:02.989Z,10.67
2024-04-18T07:46:04.683Z,11.91
2024-04-18T07:51:07.068Z,12.85
2024-04-18T07:56:09.290Z,11.96
2024-04-18T08:01:12.354Z,12.96
2024-04-18T08:06:17.521Z,13.49
2024-04-18T08:11:52.855Z,14.17
2024-04-18T08:16:42.751Z,15.20
2024-04-18T08:21:44.452Z,15.26
2024-04-18T08:26:46.179Z,14.33
2024-04-18T08:31:47.874Z,12.88
2024-04-18T08:36:49.534Z,13.14
2024-04-18T08:41:52.423Z,15.69
2024-04-18T08:46:54.104Z,13.61
2024-04-18T08:51:55.843Z,13.16
2024-04-18T08:56:58.058Z,14.30
2024-04-18T09:02:01.118Z,14.13
2024-04-18T09:07:02.800Z,13.54
2024-04-18T09:12:05.524Z,13.09
2024-04-18T09:17:12.468Z,12.53
2024-04-18T09:22:14.079Z,12.01
2024-04-18T09:27:16.310Z,12.76
2024-04-18T09:32:18.177Z,14.32
2024-04-18T09:37:21.565Z,13.81
2024-04-18T09:42:46.205Z,14.24
2024-04-18T09:47:48.392Z,13.97
2024-04-18T09:52:50.692Z,13.48
2024-04-18T09:57:52.469Z,15.14
2024-04-18T10:02:54.644Z,14.68
2024-04-18T10:07:57.787Z,15.05
2024-04-18T10:13:00.305Z,15.94
2024-04-18T10:18:12.605Z,15.76
2024-04-18T10:23:14.856Z,14.07
2024-04-18T10:28:25.784Z,14.15
2024-04-18T10:33:28.129Z,14.04
2024-04-18T10:38:30.121Z,14.28
2024-04-18T10:43:34.520Z,16.54
2024-04-18T10:48:36.583Z,17.59
2024-04-18T10:53:39.273Z,16.58
2024-04-18T10:58:40.999Z,14.73
2024-04-18T11:03:42.731Z,14.43
2024-04-18T11:08:44.439Z,14.89
2024-04-18T11:13:46.428Z,15.44
2024-04-18T11:18:48.515Z,15.82
2024-04-18T11:23:53.155Z,16.46
2024-04-18T11:28:56.791Z,15.83
2024-04-18T11:33:58.546Z,15.34
2024-04-18T11:39:01.364Z,15.28
2024-04-18T11:44:03.078Z,14.76
2024-04-18T11:49:04.898Z,15.27
2024-04-18T11:54:06.593Z,15.56
2024-04-18T11:59:11.263Z,16.21
2024-04-18T12:04:13.028Z,16.38
2024-04-18T12:09:14.778Z,15.82
2024-04-18T12:14:16.542Z,16.06
2024-04-18T12:19:30.151Z,16.58
2024-04-18T12:24:31.895Z,18.59
2024-04-18T12:29:42.650Z,19.61
2024-04-18T12:34:44.283Z,17.31
2024-04-18T12:39:46.640Z,16.73
2024-04-18T12:45:00.444Z,17.13
2024-04-18T12:50:02.361Z,18.17
2024-04-18T12:55:04.268Z,16.64
2024-04-18T13:00:06.339Z,17.18
2024-04-18T13:05:26.834Z,17.95
2024-04-18T13:10:38.509Z,16.72
2024-04-18T13:15:59.858Z,16.74
2024-04-18T13:21:04.079Z,19.36
2024-04-18T13:26:05.811Z,18.41
2024-04-18T13:31:07.528Z,16.59
2024-04-18T13:36:21.427Z,15.67
2024-04-18T13:41:31.987Z,16.56
2024-04-18T13:46:49.505Z,18.17
2024-04-18T13:52:09.618Z,16.88
2024-04-18T13:57:11.321Z,16.01
2024-04-18T14:02:15.991Z,15.92
2024-04-18T14:07:17.796Z,16.51
2024-04-18T14:12:21.448Z,18.51
2024-04-18T14:17:31.428Z,17.69
2024-04-18T14:22:39.009Z,16.26
2024-04-18T14:27:40.742Z,15.23
2024-04-18T14:33:02.596Z,14.76
2024-04-18T14:38:04.510Z,14.39
2024-04-18T14:43:06.150Z,14.95
2024-04-18T14:48:08.731Z,16.09
2024-04-18T14:53:19.601Z,17.12
2024-04-18T14:58:42.187Z,18.29
2024-04-18T15:03:55.890Z,19.23
2024-04-18T15:08:57.637Z,17.85
2024-04-18T15:13:59.293Z,16.24
2024-04-18T15:19:00.964Z,15.47
2024-04-18T15:24:22.893Z,15.26
2024-04-18T15:29:36.453Z,15.68
2024-04-18T15:34:56.208Z,14.84
2024-04-18T15:40:09.982Z,15.32
2024-04-18T15:45:11.781Z,15.65
2024-04-18T15:50:19.506Z,15.25
2024-04-18T15:55:22.484Z,14.97
2024-04-18T16:00:24.772Z,14.86
2024-04-18T16:05:26.467Z,14.57
2024-04-18T16:10:43.689Z,14.64
2024-04-18T16:15:59.252Z,15.27
2024-04-18T16:21:11.180Z,14.79
2024-04-18T16:26:15.922Z,14.65
2024-04-18T16:31:17.575Z,14.17
2024-04-18T16:36:27.993Z,14.13
2024-04-18T16:41:42.961Z,14.48
2024-04-18T16:46:44.691Z,14.38
2024-04-18T16:51:46.356Z,14.30
2024-04-18T16:56:58.294Z,13.88
2024-04-18T17:02:19.574Z,14.00
2024-04-18T17:07:21.474Z,14.22
2024-04-18T17:12:43.387Z,14.03
2024-04-18T17:18:08.188Z,13.63
2024-04-18T17:23:09.922Z,13.21
2024-04-18T17:28:11.613Z,12.96
2024-04-18T17:33:33.266Z,12.93
2024-04-18T17:38:34.946Z,12.98
2024-04-18T17:43:56.557Z,12.78
2024-04-18T17:49:18.223Z,12.76
2024-04-18T17:54:19.936Z,12.69
2024-04-18T17:59:21.756Z,12.71
2024-04-18T18:04:23.482Z,12.71
2024-04-18T18:09:25.269Z,12.63
2024-04-18T18:14:26.907Z,12.50
2024-04-18T18:19:34.555Z,12.40
2024-04-18T18:24:36.409Z,12.20
2024-04-18T18:29:38.074Z,11.98
2024-04-18T18:34:43.033Z,11.83
2024-04-18T18:39:44.840Z,11.97
2024-04-18T18:44:46.497Z,11.83
2024-04-18T18:49:48.139Z,11.75
2024-04-18T18:54:49.836Z,11.66
2024-04-18T18:59:51.533Z,11.64
2024-04-18T19:04:53.222Z,11.67
2024-04-18T19:09:54.821Z,11.69
2024-04-18T19:14:56.449Z,11.59
2024-04-18T19:19:58.099Z,11.57
2024-04-18T19:24:59.959Z,11.62
2024-04-18T19:30:01.628Z,11.62
2024-04-18T19:35:03.328Z,11.84
2024-04-18T19:40:05.125Z,11.78
2024-04-18T19:45:06.933Z,11.66
2024-04-18T19:50:08.700Z,11.74
2024-04-18T19:55:10.349Z,11.65
2024-04-18T20:00:12.228Z,11.64
2024-04-18T20:05:13.947Z,11.51
2024-04-18T20:10:15.653Z,11.58
2024-04-18T20:15:17.396Z,11.55
2024-04-18T20:20:19.125Z,11.59
2024-04-18T20:25:20.719Z,11.51
2024-04-18T20:30:22.359Z,11.31
2024-04-18T20:35:39.470Z,11.21
2024-04-18T20:40:41.311Z,11.21
2024-04-18T20:45:43.138Z,11.10
2024-04-18T20:50:44.875Z,11.19
2024-04-18T20:55:46.465Z,11.09
2024-04-18T21:06:45.454Z,10.99
2024-04-18T21:11:47.052Z,10.96
2024-04-18T21:16:48.651Z,10.83
2024-04-18T21:21:50.251Z,10.85
2024-04-18T21:26:51.861Z,10.78
2024-04-18T21:31:53.497Z,10.72
2024-04-18T21:36:55.118Z,10.68
2024-04-18T21:41:56.719Z,10.71
2024-04-18T21:46:58.318Z,10.58
2024-04-18T21:52:00.134Z,10.60
2024-04-18T21:57:01.690Z,10.53
2024-04-18T22:02:03.395Z,10.71
2024-04-18T22:07:04.998Z,10.44
2024-04-18T22:12:06.812Z,10.13
2024-04-18T22:17:08.457Z,9.96
2024-04-18T22:22:10.060Z,9.71
2024-04-18T22:27:12.195Z,9.54
2024-04-18T22:32:13.877Z,9.48
2024-04-18T22:37:15.501Z,9.51
2024-04-18T22:42:17.150Z,9.41
2024-04-18T22:47:18.817Z,9.30
2024-04-18T22:52:20.478Z,9.33
2024-04-18T22:57:23.843Z,9.14
2024-04-18T23:02:25.483Z,9.08
2024-04-18T23:07:27.103Z,9.10
2024-04-18T23:12:28.748Z,9.05
2024-04-18T23:17:30.489Z,9.12
2024-04-18T23:22:32.153Z,9.19
2024-04-18T23:27:55.439Z,9.24
2024-04-18T23:32:57.113Z,9.31
2024-04-18T23:37:58.737Z,9.28
2024-04-18T23:43:00.405Z,9.22
2024-04-18T23:48:02.103Z,9.23
2024-04-18T23:53:03.768Z,9.41
2024-04-18T23:58:05.395Z,9.41
